createdAt,value
2018-12-20T00:01:40.242Z,7.65
2018-12-20T00:04:09.045Z,7.65
2018-12-20T00:06:37.979Z,7.65
2018-12-20T00:09:08.648Z,7.63
2018-12-20T00:11:44.108Z,7.64
2018-12-20T00:14:12.983Z,7.67
2018-12-20T00:16:47.195Z,7.66
2018-12-20T00:19:16.008Z,7.66
2018-12-20T00:21:45.001Z,7.68
2018-12-20T00:24:14.219Z,7.68
2018-12-20T00:26:42.920Z,7.69
2018-12-20T00:29:11.762Z,7.68
2018-12-20T00:31:41.439Z,7.70
2018-12-20T00:34:10.343Z,7.74
2018-12-20T00:36:39.080Z,7.68
2018-12-20T00:39:09.394Z,7.69
2018-12-20T00:41:38.168Z,7.71
2018-12-20T00:44:07.052Z,7.72
2018-12-20T00:46:36.150Z,7.73
2018-12-20T00:49:05.035Z,7.74
2018-12-20T00:51:33.841Z,7.73
2018-12-20T00:54:04.599Z,7.70
2018-12-20T00:56:33.387Z,7.67
2018-12-20T00:59:04.228Z,7.67
2018-12-20T01:01:33.393Z,7.67
2018-12-20T01:04:04.061Z,7.69
2018-12-20T01:06:33.192Z,7.71
2018-12-20T01:09:03.442Z,7.70
2018-12-20T01:11:32.629Z,7.70
2018-12-20T01:14:04.186Z,7.71
2018-12-20T01:16:33.400Z,7.73
2018-12-20T01:19:03.256Z,7.65
2018-12-20T01:21:33.904Z,7.67
2018-12-20T01:24:05.715Z,7.75
2018-12-20T01:26:40.801Z,7.77
2018-12-20T01:29:09.726Z,7.74
2018-12-20T01:31:40.691Z,7.74
2018-12-20T01:34:09.696Z,7.76
2018-12-20T01:36:38.725Z,7.76
2018-12-20T01:39:08.263Z,7.77
2018-12-20T01:41:43.474Z,7.77
2018-12-20T01:44:12.552Z,7.76
2018-12-20T01:46:48.071Z,7.74
2018-12-20T01:49:16.916Z,7.74
2018-12-20T01:51:46.185Z,7.73
2018-12-20T01:54:18.170Z,7.72
2018-12-20T01:56:47.101Z,7.71
2018-12-20T01:59:22.654Z,7.71
2018-12-20T02:01:51.556Z,7.74
2018-12-20T02:04:22.364Z,7.76
2018-12-20T02:06:51.505Z,7.77
2018-12-20T02:09:20.609Z,7.79
2018-12-20T02:11:51.325Z,7.79
2018-12-20T02:14:20.104Z,7.78
2018-12-20T02:16:49.412Z,7.77
2018-12-20T02:19:18.286Z,7.76
2018-12-20T02:21:47.119Z,7.77
2018-12-20T02:24:16.628Z,7.76
2018-12-20T02:26:46.192Z,7.75
2018-12-20T02:29:15.046Z,7.73
2018-12-20T02:31:44.513Z,7.79
2018-12-20T02:34:15.193Z,7.77
2018-12-20T02:36:44.287Z,7.75
2018-12-20T02:39:13.595Z,7.71
2018-12-20T02:41:42.430Z,7.72
2018-12-20T02:44:11.287Z,7.73
2018-12-20T02:46:41.015Z,7.74
2018-12-20T02:49:09.942Z,7.73
2018-12-20T02:51:39.036Z,7.76
2018-12-20T02:54:13.377Z,7.78
2018-12-20T02:56:42.436Z,7.83
2018-12-20T02:59:11.617Z,7.80
2018-12-20T03:01:42.332Z,7.81
2018-12-20T03:04:11.271Z,7.81
2018-12-20T03:06:45.817Z,7.77
2018-12-20T03:09:15.283Z,7.76
2018-12-20T03:11:49.980Z,7.77
2018-12-20T03:14:19.104Z,7.78
2018-12-20T03:16:48.057Z,7.74
2018-12-20T03:19:17.534Z,7.76
2018-12-20T03:21:47.119Z,7.73
2018-12-20T03:24:22.745Z,7.77
2018-12-20T03:26:53.825Z,7.72
2018-12-20T03:29:23.091Z,7.72
2018-12-20T03:31:51.944Z,7.73
2018-12-20T03:34:20.837Z,7.70
2018-12-20T03:36:50.325Z,7.72
2018-12-20T03:39:19.137Z,7.70
2018-12-20T03:41:48.014Z,7.72
2018-12-20T03:44:17.265Z,7.71
2018-12-20T03:46:46.383Z,7.69
2018-12-20T03:49:15.401Z,7.71
2018-12-20T03:51:45.014Z,7.69
2018-12-20T03:54:14.011Z,7.75
2018-12-20T03:56:42.859Z,7.81
2018-12-20T03:59:11.997Z,7.81
2018-12-20T04:01:40.853Z,7.76
2018-12-20T04:04:10.015Z,7.65
2018-12-20T04:06:38.890Z,7.67
2018-12-20T04:09:08.202Z,7.69
2018-12-20T04:11:37.013Z,7.71
2018-12-20T04:14:06.023Z,7.71
2018-12-20T04:16:35.577Z,7.71
2018-12-20T04:19:04.852Z,7.77
2018-12-20T04:21:33.744Z,7.91
2018-12-20T04:24:06.909Z,7.93
2018-12-20T04:26:36.016Z,7.81
2018-12-20T04:29:05.049Z,7.80
2018-12-20T04:31:34.316Z,7.84
2018-12-20T04:34:05.069Z,7.98
2018-12-20T04:36:34.412Z,8.01
2018-12-20T04:39:04.180Z,7.85
2018-12-20T04:41:33.082Z,7.85
2018-12-20T04:44:03.531Z,7.93
2018-12-20T04:46:33.185Z,7.98
2018-12-20T04:49:01.956Z,7.92
2018-12-20T04:51:30.708Z,7.92
2018-12-20T04:53:59.893Z,7.97
2018-12-20T04:56:28.916Z,7.94
2018-12-20T04:58:57.785Z,8.02
2018-12-20T05:01:28.328Z,7.96
2018-12-20T05:03:57.276Z,7.96
2018-12-20T05:06:26.125Z,7.87
2018-12-20T05:08:55.522Z,7.91
2018-12-20T05:11:24.445Z,7.85
2018-12-20T05:13:53.373Z,7.85
2018-12-20T05:16:23.532Z,7.87
2018-12-20T05:18:52.611Z,7.80
2018-12-20T05:21:21.851Z,7.76
2018-12-20T05:23:51.014Z,7.79
2018-12-20T05:26:19.801Z,7.89
2018-12-20T05:28:48.908Z,7.85
2018-12-20T05:31:20.461Z,7.80
2018-12-20T05:33:49.375Z,7.82
2018-12-20T05:36:18.304Z,7.89
2018-12-20T05:38:47.407Z,7.89
2018-12-20T05:41:18.423Z,7.93
2018-12-20T05:43:47.403Z,7.89
2018-12-20T05:46:16.802Z,7.83
2018-12-20T05:48:59.556Z,7.82
2018-12-20T05:51:29.022Z,7.87
2018-12-20T05:53:57.971Z,7.82
2018-12-20T05:56:26.826Z,7.84
2018-12-20T05:58:59.454Z,7.88
2018-12-20T06:01:28.602Z,7.88
2018-12-20T06:04:00.293Z,7.95
2018-12-20T06:06:29.400Z,7.96
2018-12-20T06:08:58.262Z,7.97
2018-12-20T06:11:27.298Z,8.08
2018-12-20T06:13:56.886Z,7.98
2018-12-20T06:16:30.544Z,7.92
2018-12-20T06:18:59.453Z,7.97
2018-12-20T06:21:28.309Z,7.97
2018-12-20T06:23:57.212Z,7.99
2018-12-20T06:26:26.410Z,7.94
2018-12-20T06:28:55.271Z,7.97
2018-12-20T06:31:24.110Z,7.98
2018-12-20T06:33:53.964Z,7.95
2018-12-20T06:36:22.837Z,7.96
2018-12-20T06:38:51.822Z,7.97
2018-12-20T06:41:20.886Z,8.01
2018-12-20T06:43:50.210Z,7.98
2018-12-20T06:46:22.920Z,8.02
2018-12-20T06:48:52.556Z,8.04
2018-12-20T06:51:21.462Z,8.04
2018-12-20T06:53:50.244Z,8.02
2018-12-20T06:56:19.303Z,8.04
2018-12-20T06:58:48.072Z,8.04
2018-12-20T07:01:16.903Z,8.04
2018-12-20T07:03:45.991Z,8.06
2018-12-20T07:06:14.738Z,8.10
2018-12-20T07:08:43.482Z,8.11
2018-12-20T07:11:12.519Z,8.05
2018-12-20T07:13:41.303Z,8.08
2018-12-20T07:16:10.080Z,8.12
2018-12-20T07:18:42.136Z,8.06
2018-12-20T07:21:10.886Z,8.04
2018-12-20T07:23:39.662Z,8.00
2018-12-20T07:26:08.710Z,8.00
2018-12-20T07:28:43.282Z,7.99
2018-12-20T07:31:12.053Z,7.97
2018-12-20T07:33:40.818Z,7.96
2018-12-20T07:36:09.667Z,7.97
2018-12-20T07:38:38.762Z,7.95
2018-12-20T07:41:08.555Z,7.96
2018-12-20T07:43:37.547Z,7.98
2018-12-20T07:46:06.757Z,7.97
2018-12-20T07:48:44.378Z,7.95
2018-12-20T07:51:13.518Z,8.00
2018-12-20T07:53:42.289Z,8.01
2018-12-20T07:56:11.189Z,7.96
2018-12-20T07:58:41.473Z,8.00
2018-12-20T08:01:10.223Z,8.04
2018-12-20T08:03:39.375Z,8.01
2018-12-20T08:06:08.519Z,8.03
2018-12-20T08:08:37.395Z,8.06
2018-12-20T08:11:07.540Z,8.09
2018-12-20T08:13:37.886Z,8.07
2018-12-20T08:16:06.686Z,8.09
2018-12-20T08:18:35.933Z,8.13
2018-12-20T08:21:05.044Z,8.17
2018-12-20T08:23:33.858Z,8.21
2018-12-20T08:26:13.347Z,8.27
2018-12-20T08:28:42.210Z,8.26
2018-12-20T08:31:11.033Z,8.26
2018-12-20T08:33:40.114Z,8.21
2018-12-20T08:36:08.933Z,8.24
2018-12-20T08:38:37.810Z,8.27
2018-12-20T08:41:09.027Z,8.34
2018-12-20T08:43:37.852Z,8.26
2018-12-20T08:46:06.622Z,8.28
2018-12-20T08:48:35.707Z,8.29
2018-12-20T08:51:04.583Z,8.49
2018-12-20T08:53:34.074Z,8.39
2018-12-20T08:56:04.958Z,8.49
2018-12-20T08:58:39.559Z,8.40
2018-12-20T09:01:08.516Z,8.43
2018-12-20T09:03:37.470Z,8.45
2018-12-20T09:06:06.292Z,8.47
2018-12-20T09:08:35.550Z,8.46
2018-12-20T09:11:09.329Z,8.46
2018-12-20T09:13:38.140Z,8.56
2018-12-20T09:16:08.193Z,8.59
2018-12-20T09:18:37.224Z,8.63
2018-12-20T09:21:06.073Z,8.70
2018-12-20T09:23:37.034Z,8.62
2018-12-20T09:26:06.747Z,8.65
2018-12-20T09:28:35.498Z,8.69
2018-12-20T09:31:04.593Z,8.78
2018-12-20T09:33:33.474Z,8.74
2018-12-20T09:36:04.012Z,8.82
2018-12-20T09:38:37.002Z,8.92
2018-12-20T09:41:05.941Z,8.76
2018-12-20T09:43:34.867Z,8.88
2018-12-20T09:46:06.152Z,8.95
2018-12-20T09:48:34.995Z,8.90
2018-12-20T09:51:04.078Z,8.98
2018-12-20T09:53:38.900Z,8.86
2018-12-20T09:56:07.773Z,8.90
2018-12-20T09:58:36.872Z,8.91
2018-12-20T10:01:06.110Z,8.96
2018-12-20T10:03:35.911Z,9.00
2018-12-20T10:06:06.428Z,9.00
2018-12-20T10:08:46.502Z,9.22
2018-12-20T10:11:15.460Z,9.02
2018-12-20T10:13:45.061Z,8.98
2018-12-20T10:16:14.149Z,8.88
2018-12-20T10:18:42.975Z,8.83
2018-12-20T10:21:12.483Z,8.93
2018-12-20T10:23:41.773Z,8.99
2018-12-20T10:26:15.575Z,9.08
2018-12-20T10:28:44.370Z,9.03
2018-12-20T10:31:16.484Z,9.03
2018-12-20T10:33:45.291Z,9.16
2018-12-20T10:36:19.914Z,9.10
2018-12-20T10:38:48.726Z,9.04
2018-12-20T10:41:17.830Z,9.20
2018-12-20T10:43:46.624Z,9.05
2018-12-20T10:46:15.439Z,9.09
2018-12-20T10:48:50.335Z,8.95
2018-12-20T10:51:19.189Z,8.94
2018-12-20T10:53:48.027Z,8.90
2018-12-20T10:56:24.659Z,8.92
2018-12-20T10:58:53.545Z,8.91
2018-12-20T11:01:27.430Z,9.01
2018-12-20T11:04:03.285Z,8.88
2018-12-20T11:06:37.337Z,8.65
2018-12-20T11:09:13.183Z,8.68
2018-12-20T11:11:47.134Z,8.73
2018-12-20T11:14:16.187Z,8.91
2018-12-20T11:16:44.955Z,8.79
2018-12-20T11:21:47.225Z,8.64
2018-12-20T11:24:19.470Z,8.70
2018-12-20T11:26:48.226Z,8.67
2018-12-20T11:29:17.075Z,8.64
2018-12-20T11:31:45.813Z,8.56
2018-12-20T11:34:21.463Z,8.63
2018-12-20T11:36:50.622Z,8.58
2018-12-20T11:39:19.574Z,8.74
2018-12-20T11:41:48.396Z,8.82
2018-12-20T11:44:19.115Z,8.88
2018-12-20T11:46:49.166Z,8.76
2018-12-20T11:49:18.048Z,8.71
2018-12-20T11:51:46.911Z,9.09
2018-12-20T11:54:15.988Z,8.84
2018-12-20T11:56:46.563Z,8.99
2018-12-20T11:59:15.472Z,8.93
2018-12-20T12:01:46.126Z,8.99
2018-12-20T12:04:29.658Z,8.91
2018-12-20T12:06:58.732Z,8.99
2018-12-20T12:09:32.624Z,8.91
2018-12-20T12:12:03.257Z,9.00
2018-12-20T12:14:32.078Z,8.96
2018-12-20T12:17:00.970Z,9.02
2018-12-20T12:19:30.074Z,9.08
2018-12-20T12:22:04.643Z,8.95
2018-12-20T12:24:33.548Z,8.88
2018-12-20T12:27:07.156Z,9.08
2018-12-20T12:29:41.411Z,9.05
2018-12-20T12:32:11.134Z,9.12
2018-12-20T12:34:39.986Z,9.10
2018-12-20T12:37:09.970Z,9.33
2018-12-20T12:39:44.096Z,9.26
2018-12-20T12:42:13.285Z,9.44
2018-12-20T12:44:42.802Z,9.61
2018-12-20T12:47:11.574Z,9.68
2018-12-20T12:49:41.357Z,9.93
2018-12-20T12:52:10.808Z,9.94
2018-12-20T12:54:39.659Z,9.95
2018-12-20T12:57:09.858Z,9.85
2018-12-20T12:59:38.711Z,9.83
2018-12-20T13:02:11.307Z,9.81
2018-12-20T13:04:41.713Z,9.50
2018-12-20T13:07:10.709Z,9.73
2018-12-20T13:09:46.131Z,9.59
2018-12-20T13:12:15.272Z,9.43
2018-12-20T13:14:44.178Z,9.40
2018-12-20T13:17:20.112Z,9.42
2018-12-20T13:19:49.318Z,9.35
2018-12-20T13:22:18.147Z,9.43
2018-12-20T13:24:47.107Z,9.46
2018-12-20T13:27:19.721Z,9.69
2018-12-20T13:29:50.207Z,9.54
2018-12-20T13:32:19.024Z,9.57
2018-12-20T13:34:48.127Z,9.68
2018-12-20T13:37:18.291Z,9.60
2018-12-20T13:39:47.564Z,9.75
2018-12-20T13:42:16.712Z,9.85
2018-12-20T13:44:45.879Z,9.85
2018-12-20T13:47:14.722Z,9.63
2018-12-20T13:49:44.001Z,9.62
2018-12-20T13:52:13.905Z,9.75
2018-12-20T13:54:42.805Z,9.21
2018-12-20T13:57:11.949Z,9.24
2018-12-20T13:59:40.859Z,9.17
2018-12-20T14:02:12.552Z,9.15
2018-12-20T14:04:41.756Z,9.21
2018-12-20T14:07:13.620Z,9.08
2018-12-20T14:09:42.455Z,9.19
2018-12-20T14:12:11.948Z,9.29
2018-12-20T14:14:45.646Z,9.12
2018-12-20T14:17:14.533Z,9.12
2018-12-20T14:19:43.560Z,9.01
2018-12-20T14:22:12.268Z,9.01
2018-12-20T14:24:41.004Z,9.16
2018-12-20T14:29:45.479Z,9.15
2018-12-20T14:32:14.355Z,9.13
2018-12-20T14:34:43.165Z,9.12
2018-12-20T14:37:11.985Z,9.05
2018-12-20T14:39:41.161Z,9.04
2018-12-20T14:42:10.071Z,8.87
2018-12-20T14:44:38.848Z,8.89
2018-12-20T14:47:07.945Z,8.95
2018-12-20T14:49:36.750Z,8.94
2018-12-20T14:52:06.458Z,8.99
2018-12-20T14:57:09.498Z,8.93
2018-12-20T14:59:38.291Z,9.02
2018-12-20T15:02:07.467Z,8.96
2018-12-20T15:04:36.311Z,9.08
2018-12-20T15:07:05.588Z,9.02
2018-12-20T15:09:34.939Z,8.98
2018-12-20T15:12:07.159Z,8.96
2018-12-20T15:14:35.964Z,8.94
2018-12-20T15:17:05.205Z,9.01
2018-12-20T15:19:34.026Z,9.05
2018-12-20T15:22:07.919Z,9.06
2018-12-20T15:24:37.040Z,8.92
2018-12-20T15:27:05.834Z,8.96
2018-12-20T15:29:34.637Z,9.01
2018-12-20T15:32:04.555Z,8.99
2018-12-20T15:34:34.225Z,9.02
2018-12-20T15:37:03.146Z,8.96
2018-12-20T15:39:32.222Z,9.02
2018-12-20T15:42:01.068Z,9.13
2018-12-20T15:44:30.076Z,9.10
2018-12-20T15:46:59.230Z,9.02
2018-12-20T15:49:41.761Z,9.01
2018-12-20T15:52:06.389Z,9.00
2018-12-20T15:54:35.304Z,9.05
2018-12-20T15:57:04.342Z,9.03
2018-12-20T15:59:34.443Z,8.91
2018-12-20T16:02:07.255Z,8.97
2018-12-20T16:04:36.924Z,8.91
2018-12-20T16:07:05.974Z,8.92
2018-12-20T16:09:34.943Z,8.92
2018-12-20T16:12:05.219Z,8.92
2018-12-20T16:14:37.710Z,8.94
2018-12-20T16:17:06.577Z,8.96
2018-12-20T16:19:35.675Z,8.95
2018-12-20T16:22:05.306Z,8.99
2018-12-20T16:24:37.538Z,8.99
2018-12-20T16:27:06.926Z,8.98
2018-12-20T16:29:35.895Z,8.95
2018-12-20T16:32:06.080Z,8.95
2018-12-20T16:34:35.375Z,9.02
2018-12-20T16:37:04.307Z,8.93
2018-12-20T16:39:33.103Z,8.89
2018-12-20T16:42:03.083Z,8.89
2018-12-20T16:44:31.959Z,8.88
2018-12-20T16:47:01.153Z,8.88
2018-12-20T16:49:30.388Z,8.88
2018-12-20T16:52:09.993Z,8.84
2018-12-20T16:54:39.040Z,8.86
2018-12-20T16:57:08.063Z,8.86
2018-12-20T16:59:37.229Z,8.86
2018-12-20T17:02:06.657Z,8.86
2018-12-20T17:04:35.902Z,8.86
2018-12-20T17:07:05.855Z,8.87
2018-12-20T17:09:35.864Z,8.81
2018-12-20T17:12:06.259Z,8.79
2018-12-20T17:14:38.533Z,8.79
2018-12-20T17:17:08.979Z,8.76
2018-12-20T17:22:19.054Z,8.67
2018-12-20T17:24:48.468Z,8.66
2018-12-20T17:27:17.860Z,8.72
2018-12-20T17:29:47.538Z,8.62
2018-12-20T17:32:16.973Z,8.57
2018-12-20T17:34:46.378Z,8.53
2018-12-20T17:37:17.003Z,8.54
2018-12-20T17:39:46.567Z,8.53
2018-12-20T17:42:15.994Z,8.56
2018-12-20T17:44:45.507Z,8.57
2018-12-20T17:47:15.020Z,8.58
2018-12-20T17:49:44.607Z,8.59
2018-12-20T17:52:14.389Z,8.59
2018-12-20T17:54:43.843Z,8.64
2018-12-20T17:57:13.294Z,8.67
2018-12-20T17:59:43.269Z,8.76
2018-12-20T18:02:16.655Z,8.73
2018-12-20T18:04:46.169Z,8.71
2018-12-20T18:07:16.171Z,8.91
2018-12-20T18:09:46.361Z,8.92
2018-12-20T18:12:16.438Z,8.79
2018-12-20T18:14:51.427Z,8.77
2018-12-20T18:17:20.894Z,8.82
2018-12-20T18:19:50.393Z,8.78
2018-12-20T18:22:23.417Z,8.80
2018-12-20T18:24:53.904Z,8.94
2018-12-20T18:27:23.565Z,8.91
2018-12-20T18:29:53.681Z,8.85
2018-12-20T18:32:23.316Z,8.91
2018-12-20T18:35:00.498Z,8.78
2018-12-20T18:37:30.614Z,8.74
2018-12-20T18:40:00.432Z,8.83
2018-12-20T18:42:32.989Z,8.74
2018-12-20T18:45:03.679Z,8.82
2018-12-20T18:47:33.142Z,8.74
2018-12-20T18:50:03.881Z,8.67
2018-12-20T18:52:33.776Z,8.66
2018-12-20T18:55:05.494Z,8.66
2018-12-20T18:57:35.157Z,8.67
2018-12-20T19:00:06.476Z,8.65
2018-12-20T19:02:36.038Z,8.68
2018-12-20T19:05:06.517Z,8.63
2018-12-20T19:07:41.553Z,8.62
2018-12-20T19:10:11.311Z,8.65
2018-12-20T19:12:41.646Z,8.65
2018-12-20T19:15:11.458Z,8.69
2018-12-20T19:17:41.116Z,8.64
2018-12-20T19:20:18.117Z,8.65
2018-12-20T19:22:47.693Z,8.60
2018-12-20T19:25:17.312Z,8.64
2018-12-20T19:27:46.741Z,8.73
2018-12-20T19:30:22.656Z,8.57
2018-12-20T19:32:52.916Z,8.58
2018-12-20T19:35:22.429Z,8.62
2018-12-20T19:37:57.882Z,8.65
2018-12-20T19:40:27.792Z,8.58
2018-12-20T19:43:00.957Z,8.59
2018-12-20T19:45:33.131Z,8.63
2018-12-20T19:48:03.844Z,8.64
2018-12-20T19:50:33.310Z,8.67
2018-12-20T19:53:03.422Z,8.72
2018-12-20T19:55:33.400Z,8.65
2018-12-20T19:58:04.340Z,8.60
2018-12-20T20:00:35.279Z,8.55
2018-12-20T20:03:05.490Z,8.58
2018-12-20T20:05:34.980Z,8.69
2018-12-20T20:08:07.122Z,8.58
2018-12-20T20:10:37.910Z,8.57
2018-12-20T20:13:07.486Z,8.56
2018-12-20T20:15:42.812Z,8.58
2018-12-20T20:18:12.865Z,8.60
2018-12-20T20:20:42.363Z,8.58
2018-12-20T20:23:12.677Z,8.60
2018-12-20T20:25:42.587Z,8.56
2018-12-20T20:28:13.015Z,8.53
2018-12-20T20:30:42.531Z,8.52
2018-12-20T20:33:13.666Z,8.50
2018-12-20T20:35:43.139Z,8.46
2018-12-20T20:38:12.640Z,8.47
2018-12-20T20:40:42.684Z,8.49
2018-12-20T20:43:12.165Z,8.45
2018-12-20T20:45:41.710Z,8.44
2018-12-20T20:48:13.357Z,8.45
2018-12-20T20:50:45.485Z,8.41
2018-12-20T20:53:15.058Z,8.42
2018-12-20T20:55:45.073Z,8.41
2018-12-20T20:58:14.662Z,8.36
2018-12-20T21:00:44.288Z,8.35
2018-12-20T21:03:14.438Z,8.36
2018-12-20T21:05:49.083Z,8.34
2018-12-20T21:08:18.843Z,8.34
2018-12-20T21:10:51.063Z,8.33
2018-12-20T21:13:21.242Z,8.34
2018-12-20T21:15:51.478Z,8.33
2018-12-20T21:18:31.353Z,8.29
2018-12-20T21:21:00.975Z,8.37
2018-12-20T21:23:31.031Z,8.35
2018-12-20T21:26:00.745Z,8.34
2018-12-20T21:28:31.185Z,8.31
2018-12-20T21:31:00.700Z,8.33
2018-12-20T21:33:30.222Z,8.36
2018-12-20T21:36:00.302Z,8.37
2018-12-20T21:38:29.785Z,8.42
2018-12-20T21:41:06.067Z,8.45
2018-12-20T21:43:35.922Z,8.44
2018-12-20T21:46:06.133Z,8.50
2018-12-20T21:48:41.663Z,8.48
2018-12-20T21:51:11.678Z,8.49
2018-12-20T21:53:41.004Z,8.51
2018-12-20T21:56:12.568Z,8.55
2018-12-20T21:58:42.225Z,8.63
2018-12-20T22:01:16.442Z,8.58
2018-12-20T22:03:45.889Z,8.59
2018-12-20T22:06:19.836Z,8.69
2018-12-20T22:08:49.746Z,8.73
2018-12-20T22:11:19.060Z,8.72
2018-12-20T22:13:48.040Z,8.88
2018-12-20T22:16:17.029Z,8.72
2018-12-20T22:18:46.347Z,8.72
2018-12-20T22:21:16.419Z,8.80
2018-12-20T22:23:45.390Z,8.73
2018-12-20T22:26:15.045Z,8.72
2018-12-20T22:28:44.034Z,8.73
2018-12-20T22:31:12.930Z,8.69
2018-12-20T22:33:50.788Z,8.73
2018-12-20T22:36:19.603Z,8.83
2018-12-20T22:38:48.431Z,8.75
2018-12-20T22:41:17.231Z,8.70
2018-12-20T22:43:45.979Z,8.88
2018-12-20T22:46:14.739Z,8.81
2018-12-20T22:48:46.680Z,8.74
2018-12-20T22:51:15.499Z,8.65
2018-12-20T22:53:44.287Z,8.70
2018-12-20T22:56:14.849Z,8.71
2018-12-20T22:58:44.006Z,8.66
2018-12-20T23:01:12.823Z,8.70
2018-12-20T23:03:43.702Z,8.80
2018-12-20T23:06:12.933Z,8.79
2018-12-20T23:08:41.693Z,8.71
2018-12-20T23:11:11.750Z,8.67
2018-12-20T23:13:40.919Z,8.72
2018-12-20T23:16:15.345Z,8.89
2018-12-20T23:18:44.158Z,8.80
2018-12-20T23:21:12.962Z,8.91
2018-12-20T23:23:41.947Z,8.90
2018-12-20T23:26:11.646Z,8.92
2018-12-20T23:28:40.425Z,8.82
2018-12-20T23:31:13.862Z,8.92
2018-12-20T23:33:42.995Z,8.92
2018-12-20T23:36:11.806Z,8.91
2018-12-20T23:38:41.424Z,8.89
2018-12-20T23:43:51.728Z,8.94
2018-12-20T23:46:22.053Z,8.93
2018-12-20T23:48:51.018Z,8.94
2018-12-20T23:51:30.608Z,8.91
2018-12-20T23:53:59.839Z,8.93
2018-12-20T23:56:28.670Z,8.88
2018-12-20T23:58:57.505Z,8.95
